Time;durP1;ratioP1;P1;durP2;ratioP2;P2;SDS_P1;SDS_P2;PMS_P1;PMS_P2;Temp;Humidity;BMP_temperature;BMP_pressure;BME280_temperature;BME280_humidity;BME280_pressure;Samples;Min_cycle;Max_cycle;Signal;HPM_P1;HPM_P2
2024/01/17 00:00:02;;;;;;;0.30;0.30;;;;;;;;;;1038023;28;20029;-21
2024/01/17 00:00:32;;;;;;;2.42;1.98;;;;;;;;;;1037106;28;20052;-21
2024/01/17 00:01:03;;;;;;;0.60;0.60;;;;;;;;;;1037813;28;20017;-21
2024/01/17 00:01:35;;;;;;;2.35;1.63;;;;;;;;;;1037762;28;20029;-21
2024/01/17 00:02:06;;;;;;;0.50;0.50;;;;;;;;;;1037758;28;20032;-21
2024/01/17 00:02:36;;;;;;;3.53;2.92;;;;;;;;;;1037230;28;20036;-21
2024/01/17 00:03:07;;;;;;;5.13;1.42;;;;;;;;;;1034374;28;20030;-21
2024/01/17 00:03:37;;;;;;;1.35;1.25;;;;;;;;;;1033545;28;20068;-21
2024/01/17 00:04:08;;;;;;;2.08;1.80;;;;;;;;;;1033505;28;20026;-21
2024/01/17 00:04:38;;;;;;;0.50;0.50;;;;;;;;;;1033303;28;20397;-21
2024/01/17 00:05:11;;;;;;;0.35;0.35;;;;;;;;;;1038095;28;20477;-21
2024/01/17 00:05:42;;;;;;;1.02;0.93;;;;;;;;;;1037336;28;20068;-21
2024/01/17 00:06:12;;;;;;;1.13;1.13;;;;;;;;;;1037766;28;20025;-21
2024/01/17 00:06:43;;;;;;;0.60;0.60;;;;;;;;;;1037785;28;20025;-21
2024/01/17 00:07:13;;;;;;;3.53;2.17;;;;;;;;;;1038244;28;20021;-21
2024/01/17 00:07:44;;;;;;;1.90;0.85;;;;;;;;;;1038107;28;20501;-21
2024/01/17 00:08:14;;;;;;;0.80;0.68;;;;;;;;;;1037828;28;20500;-21
2024/01/17 00:08:44;;;;;;;4.10;2.25;;;;;;;;;;1037757;28;20048;-21
2024/01/17 00:09:15;;;;;;;1.50;0.82;;;;;;;;;;1039280;28;20063;-21
2024/01/17 00:09:46;;;;;;;1.60;1.52;;;;;;;;;;1037823;28;20594;-21
2024/01/17 00:10:17;;;;;;;2.20;0.85;;;;;;;;;;1037873;28;20535;-21
2024/01/17 00:10:48;;;;;;;23.80;1.38;;;;;;;;;;1037642;28;20052;-21
2024/01/17 00:11:19;;;;;;;1.10;1.05;;;;;;;;;;1037865;28;20489;-21
2024/01/17 00:11:50;;;;;;;1.02;0.85;;;;;;;;;;1037771;28;20091;-21
2024/01/17 00:12:21;;;;;;;2.65;2.42;;;;;;;;;;1037737;28;20420;-21
2024/01/17 00:12:51;;;;;;;1.20;1.10;;;;;;;;;;1038127;28;20030;-21
2024/01/17 00:13:21;;;;;;;1.20;1.13;;;;;;;;;;1037946;28;20026;-21
2024/01/17 00:13:52;;;;;;;2.40;1.83;;;;;;;;;;1037537;28;20033;-21
2024/01/17 00:14:22;;;;;;;2.42;1.63;;;;;;;;;;1036648;28;20064;-21
2024/01/17 00:14:53;;;;;;;2.08;1.58;;;;;;;;;;1037952;28;20032;-21
2024/01/17 00:15:23;;;;;;;1.50;1.40;;;;;;;;;;1037733;28;20025;-21
2024/01/17 00:15:53;;;;;;;2.90;2.15;;;;;;;;;;1037902;28;20029;-21
2024/01/17 00:16:24;;;;;;;4.95;3.22;;;;;;;;;;1037648;28;20021;-21
2024/01/17 00:16:54;;;;;;;2.95;2.45;;;;;;;;;;1037313;28;20044;-21
2024/01/17 00:17:25;;;;;;;4.30;1.42;;;;;;;;;;1037976;28;20107;-21
2024/01/17 00:17:55;;;;;;;0.63;0.63;;;;;;;;;;1037787;28;20034;-21
2024/01/17 00:18:26;;;;;;;0.90;0.90;;;;;;;;;;1037876;28;20025;-21
2024/01/17 00:18:56;;;;;;;1.13;1.13;;;;;;;;;;1037667;28;20030;-21
2024/01/17 00:19:29;;;;;;;1.17;1.08;;;;;;;;;;1037780;28;20022;-21
2024/01/17 00:20:00;;;;;;;1.02;0.38;;;;;;;;;;1037912;28;20029;-21
2024/01/17 00:20:31;;;;;;;14.15;2.78;;;;;;;;;;1037350;28;20029;-21
2024/01/17 00:21:02;;;;;;;1.88;0.95;;;;;;;;;;1037905;28;20025;-21
2024/01/17 00:21:32;;;;;;;1.75;1.65;;;;;;;;;;1037651;28;20469;-21
2024/01/17 00:22:03;;;;;;;2.30;2.10;;;;;;;;;;1037651;28;20022;-21
2024/01/17 00:22:33;;;;;;;0.75;0.75;;;;;;;;;;1037764;28;20037;-21
2024/01/17 00:23:04;;;;;;;3.42;2.35;;;;;;;;;;1037861;28;20438;-21
2024/01/17 00:23:34;;;;;;;0.98;0.98;;;;;;;;;;1037753;28;20497;-21
2024/01/17 00:24:04;;;;;;;7.45;2.50;;;;;;;;;;1037772;28;20026;-21
2024/01/17 00:24:35;;;;;;;0.60;0.60;;;;;;;;;;1037647;28;20033;-21
2024/01/17 00:25:06;;;;;;;3.95;3.15;;;;;;;;;;1037895;28;20400;-21
2024/01/17 00:25:36;;;;;;;3.83;2.78;;;;;;;;;;1037640;28;20033;-21
2024/01/17 00:26:07;;;;;;;1.90;1.80;;;;;;;;;;1037626;28;20477;-21
2024/01/17 00:26:37;;;;;;;4.85;2.55;;;;;;;;;;1037607;28;20033;-21
2024/01/17 00:27:08;;;;;;;9.40;1.38;;;;;;;;;;1037843;28;20021;-21
2024/01/17 00:27:38;;;;;;;0.20;0.20;;;;;;;;;;1038268;28;20021;-21
2024/01/17 00:28:09;;;;;;;2.50;2.17;;;;;;;;;;1037771;28;20018;-21
2024/01/17 00:28:40;;;;;;;3.30;3.03;;;;;;;;;;1037744;28;20116;-21
2024/01/17 00:29:11;;;;;;;2.08;1.73;;;;;;;;;;1037859;28;20504;-21
2024/01/17 00:29:41;;;;;;;4.75;2.53;;;;;;;;;;1037369;28;20072;-21
2024/01/17 00:30:12;;;;;;;2.28;2.15;;;;;;;;;;1037791;28;20025;-21
2024/01/17 00:30:42;;;;;;;1.35;1.30;;;;;;;;;;1037616;28;20030;-21
2024/01/17 00:31:13;;;;;;;1.05;1.02;;;;;;;;;;1037751;28;20377;-21
2024/01/17 00:31:43;;;;;;;3.95;0.63;;;;;;;;;;1037757;28;20029;-21
2024/01/17 00:32:13;;;;;;;0.70;0.70;;;;;;;;;;1038477;28;20091;-21
2024/01/17 00:32:44;;;;;;;7.75;2.72;;;;;;;;;;1037609;28;20463;-22
2024/01/17 00:33:14;;;;;;;2.25;2.08;;;;;;;;;;1037938;28;20025;-21
2024/01/17 00:33:45;;;;;;;6.57;1.55;;;;;;;;;;1037000;28;20112;-21
2024/01/17 00:34:16;;;;;;;0.80;0.80;;;;;;;;;;1037737;28;20044;-21
2024/01/17 00:34:47;;;;;;;2.83;2.47;;;;;;;;;;1037866;28;20060;-21
2024/01/17 00:35:18;;;;;;;0.65;0.65;;;;;;;;;;1037594;28;20022;-21
2024/01/17 00:35:48;;;;;;;1.00;1.00;;;;;;;;;;1037362;28;20068;-21
2024/01/17 00:36:18;;;;;;;0.47;0.47;;;;;;;;;;1037724;28;20417;-21
2024/01/17 00:36:49;;;;;;;1.20;1.10;;;;;;;;;;1037619;28;20034;-21
2024/01/17 00:37:20;;;;;;;1.05;1.05;;;;;;;;;;1037687;28;20025;-21
2024/01/17 00:37:50;;;;;;;1.38;1.27;;;;;;;;;;1038342;28;20128;-21
2024/01/17 00:38:20;;;;;;;1.25;1.15;;;;;;;;;;1038818;28;20428;-21
2024/01/17 00:38:51;;;;;;;1.08;1.08;;;;;;;;;;1037563;28;20112;-21
2024/01/17 00:39:22;;;;;;;3.65;1.95;;;;;;;;;;1033243;28;20037;-21
2024/01/17 00:39:53;;;;;;;0.77;0.77;;;;;;;;;;1033342;28;20030;-21
2024/01/17 00:40:24;;;;;;;0.30;0.30;;;;;;;;;;1033243;28;20033;-21
2024/01/17 00:40:55;;;;;;;0.95;0.88;;;;;;;;;;1033682;28;20096;-21
2024/01/17 00:41:25;;;;;;;5.72;1.70;;;;;;;;;;1037719;28;20053;-21
2024/01/17 00:41:56;;;;;;;1.98;1.30;;;;;;;;;;1037770;28;20127;-21
2024/01/17 00:42:26;;;;;;;3.78;1.42;;;;;;;;;;1037627;28;20072;-22
2024/01/17 00:42:56;;;;;;;0.73;0.73;;;;;;;;;;1037257;28;20021;-21
2024/01/17 00:43:27;;;;;;;4.82;3.85;;;;;;;;;;1037806;28;20026;-21
2024/01/17 00:43:57;;;;;;;2.83;2.63;;;;;;;;;;1037867;28;20119;-21
2024/01/17 00:44:28;;;;;;;2.53;2.33;;;;;;;;;;1037523;28;20097;-21
2024/01/17 00:44:59;;;;;;;0.98;0.98;;;;;;;;;;1037802;28;20022;-21
2024/01/17 00:45:29;;;;;;;0.95;0.95;;;;;;;;;;1037457;28;20079;-21
2024/01/17 00:46:00;;;;;;;3.08;2.67;;;;;;;;;;1037092;28;20021;-21
2024/01/17 00:46:31;;;;;;;0.40;0.40;;;;;;;;;;1037152;28;20052;-21
2024/01/17 00:47:01;;;;;;;2.05;1.95;;;;;;;;;;1037738;28;20036;-21
2024/01/17 00:47:32;;;;;;;1.08;1.08;;;;;;;;;;1035642;28;20018;-21
2024/01/17 00:48:03;;;;;;;2.75;2.53;;;;;;;;;;1037799;28;20026;-21
2024/01/17 00:48:33;;;;;;;1.35;0.93;;;;;;;;;;1037407;28;20393;-21
2024/01/17 00:49:04;;;;;;;0.32;0.32;;;;;;;;;;1037896;28;20028;-21
2024/01/17 00:49:34;;;;;;;1.65;1.35;;;;;;;;;;1037088;28;20017;-21
2024/01/17 00:50:05;;;;;;;1.38;1.35;;;;;;;;;;1037794;28;20084;-21
2024/01/17 00:50:36;;;;;;;1.02;1.02;;;;;;;;;;1036484;28;20018;-21
2024/01/17 00:51:06;;;;;;;2.08;1.98;;;;;;;;;;1038175;28;20025;-21
2024/01/17 00:51:37;;;;;;;9.65;1.65;;;;;;;;;;1037478;28;20021;-21
2024/01/17 00:52:08;;;;;;;1.00;1.00;;;;;;;;;;1037702;28;20072;-21
2024/01/17 00:52:38;;;;;;;1.35;1.25;;;;;;;;;;1036792;28;20520;-21
2024/01/17 00:53:09;;;;;;;2.03;1.92;;;;;;;;;;1037836;28;20105;-21
2024/01/17 00:53:39;;;;;;;2.03;1.92;;;;;;;;;;1037489;28;20029;-21
2024/01/17 00:54:10;;;;;;;0.57;0.57;;;;;;;;;;1038194;28;20081;-21
2024/01/17 00:54:41;;;;;;;1.27;1.23;;;;;;;;;;1037568;28;20437;-21
2024/01/17 00:55:11;;;;;;;1.65;1.55;;;;;;;;;;1037650;28;20014;-21
2024/01/17 00:55:42;;;;;;;4.75;2.22;;;;;;;;;;1037604;28;20022;-21
2024/01/17 00:56:12;;;;;;;1.67;0.60;;;;;;;;;;1036845;28;20029;-21
2024/01/17 00:56:43;;;;;;;1.45;1.35;;;;;;;;;;1037351;28;20032;-21
2024/01/17 00:57:13;;;;;;;2.88;2.20;;;;;;;;;;1038865;28;20018;-21
2024/01/17 00:57:44;;;;;;;2.03;1.38;;;;;;;;;;1037806;28;20147;-21
2024/01/17 00:58:14;;;;;;;4.28;1.52;;;;;;;;;;1037593;28;20504;-21
2024/01/17 00:58:44;;;;;;;2.50;1.15;;;;;;;;;;1037484;28;20022;-21
2024/01/17 00:59:15;;;;;;;5.60;4.18;;;;;;;;;;1037818;28;20512;-21
2024/01/17 00:59:45;;;;;;;19.65;2.72;;;;;;;;;;1037795;28;20022;-21
2024/01/17 01:00:16;;;;;;;4.43;2.70;;;;;;;;;;1037284;28;20021;-22
2024/01/17 01:00:46;;;;;;;2.33;1.65;;;;;;;;;;1037281;28;20060;-21
2024/01/17 01:01:17;;;;;;;0.65;0.65;;;;;;;;;;1037831;28;20022;-21
2024/01/17 01:01:47;;;;;;;1.08;1.08;;;;;;;;;;1037472;28;20026;-21
2024/01/17 01:02:18;;;;;;;5.35;3.30;;;;;;;;;;1037878;28;20464;-21
2024/01/17 01:02:51;;;;;;;23.48;5.05;;;;;;;;;;1037409;28;20436;-21
2024/01/17 01:03:21;;;;;;;0.40;0.40;;;;;;;;;;1037929;28;20026;-21
2024/01/17 01:03:52;;;;;;;2.13;1.55;;;;;;;;;;1037491;28;20030;-21
2024/01/17 01:04:22;;;;;;;5.35;2.53;;;;;;;;;;1037383;28;20371;-21
2024/01/17 01:04:53;;;;;;;2.33;2.22;;;;;;;;;;1037517;28;20493;-21
2024/01/17 01:05:23;;;;;;;4.38;1.45;;;;;;;;;;1037751;28;20029;-21
2024/01/17 01:05:53;;;;;;;0.90;0.80;;;;;;;;;;1037567;28;20452;-21
2024/01/17 01:06:24;;;;;;;0.90;0.90;;;;;;;;;;1037510;28;20029;-21
2024/01/17 01:06:54;;;;;;;1.65;1.55;;;;;;;;;;1037405;28;20028;-21
2024/01/17 01:07:25;;;;;;;4.07;3.72;;;;;;;;;;1037759;28;20036;-21
2024/01/17 01:07:55;;;;;;;3.92;2.05;;;;;;;;;;1037709;28;20064;-21
2024/01/17 01:08:26;;;;;;;0.35;0.35;;;;;;;;;;1037398;28;20139;-21
2024/01/17 01:08:56;;;;;;;2.75;2.20;;;;;;;;;;1037719;28;20171;-21
2024/01/17 01:09:28;;;;;;;1.35;1.17;;;;;;;;;;1037742;28;20025;-21
2024/01/17 01:09:58;;;;;;;0.47;0.47;;;;;;;;;;1037769;28;20022;-21
2024/01/17 01:10:29;;;;;;;0.95;0.95;;;;;;;;;;1037463;28;20041;-21
2024/01/17 01:10:59;;;;;;;4.90;2.75;;;;;;;;;;1037459;28;20444;-21
2024/01/17 01:11:30;;;;;;;0.63;0.63;;;;;;;;;;1037735;28;20049;-21
2024/01/17 01:12:00;;;;;;;0.30;0.30;;;;;;;;;;1037265;28;20025;-21
2024/01/17 01:12:31;;;;;;;6.05;1.58;;;;;;;;;;1037522;28;20022;-21
2024/01/17 01:13:01;;;;;;;3.40;1.38;;;;;;;;;;1037877;28;20438;-21
2024/01/17 01:13:32;;;;;;;0.90;0.90;;;;;;;;;;1037682;28;20380;-21
2024/01/17 01:14:03;;;;;;;1.95;1.85;;;;;;;;;;1037415;28;20021;-21
2024/01/17 01:14:33;;;;;;;0.28;0.28;;;;;;;;;;1037401;28;20108;-21
2024/01/17 01:15:04;;;;;;;2.53;2.33;;;;;;;;;;1037781;28;20461;-21
2024/01/17 01:15:35;;;;;;;0.85;0.85;;;;;;;;;;1037451;28;20037;-21
2024/01/17 01:16:09;;;;;;;0.88;0.88;;;;;;;;;;1037546;28;20413;-21
2024/01/17 01:16:40;;;;;;;0.52;0.52;;;;;;;;;;1037152;28;20033;-21
2024/01/17 01:17:11;;;;;;;1.08;0.57;;;;;;;;;;1037547;28;20026;-21
2024/01/17 01:17:41;;;;;;;0.57;0.57;;;;;;;;;;1036959;28;20120;-21
2024/01/17 01:18:12;;;;;;;2.45;1.20;;;;;;;;;;1037546;28;20010;-21
2024/01/17 01:18:42;;;;;;;0.50;0.50;;;;;;;;;;1037309;28;20079;-21
2024/01/17 01:19:13;;;;;;;0.50;0.50;;;;;;;;;;1037185;28;20021;-21
2024/01/17 01:19:43;;;;;;;0.57;0.57;;;;;;;;;;1037726;28;20029;-21
2024/01/17 01:20:14;;;;;;;5.40;1.85;;;;;;;;;;1037432;28;20026;-21
2024/01/17 01:20:44;;;;;;;1.50;1.40;;;;;;;;;;1036311;28;20026;-21
2024/01/17 01:21:15;;;;;;;1.15;1.15;;;;;;;;;;1037807;28;20041;-21
2024/01/17 01:21:45;;;;;;;3.72;1.98;;;;;;;;;;1037441;28;20028;-21
2024/01/17 01:22:15;;;;;;;0.63;0.63;;;;;;;;;;1037356;28;20025;-21
2024/01/17 01:22:46;;;;;;;1.02;1.02;;;;;;;;;;1037661;28;20872;-21
2024/01/17 01:23:17;;;;;;;0.52;0.52;;;;;;;;;;1037864;28;20018;-21
2024/01/17 01:23:47;;;;;;;6.30;2.28;;;;;;;;;;1037699;28;20026;-22
2024/01/17 01:24:18;;;;;;;0.47;0.47;;;;;;;;;;1038001;28;20029;-22
2024/01/17 01:24:48;;;;;;;2.78;2.17;;;;;;;;;;1037821;28;20113;-23
2024/01/17 01:25:19;;;;;;;1.30;1.20;;;;;;;;;;1037709;28;20036;-21
2024/01/17 01:25:49;;;;;;;0.75;0.75;;;;;;;;;;1037391;28;20408;-21
2024/01/17 01:26:20;;;;;;;1.98;1.90;;;;;;;;;;1036462;28;20034;-21
2024/01/17 01:26:50;;;;;;;1.65;1.58;;;;;;;;;;1037229;28;20025;-21
2024/01/17 01:27:20;;;;;;;2.95;1.73;;;;;;;;;;1037418;28;20021;-21
2024/01/17 01:27:51;;;;;;;1.98;0.70;;;;;;;;;;1037282;28;20079;-21
2024/01/17 01:28:21;;;;;;;0.43;0.43;;;;;;;;;;1036773;28;20032;-21
2024/01/17 01:28:52;;;;;;;1.67;1.58;;;;;;;;;;1037808;28;20021;-21
2024/01/17 01:29:22;;;;;;;0.73;0.73;;;;;;;;;;1037360;28;20084;-21
2024/01/17 01:29:53;;;;;;;0.40;0.40;;;;;;;;;;1037181;28;20022;-21
2024/01/17 01:30:23;;;;;;;2.50;1.40;;;;;;;;;;1036776;28;20436;-21
2024/01/17 01:30:53;;;;;;;2.17;1.20;;;;;;;;;;1036768;28;20021;-21
2024/01/17 01:31:24;;;;;;;3.25;1.48;;;;;;;;;;1036495;28;20515;-21
2024/01/17 01:31:54;;;;;;;0.63;0.55;;;;;;;;;;1036892;28;20492;-21
2024/01/17 01:32:25;;;;;;;3.70;1.25;;;;;;;;;;1035367;28;20830;-21
2024/01/17 01:32:55;;;;;;;2.58;1.52;;;;;;;;;;1036395;28;20018;-21
2024/01/17 01:33:26;;;;;;;2.55;2.35;;;;;;;;;;1036534;28;20495;-21
2024/01/17 01:33:56;;;;;;;2.00;0.93;;;;;;;;;;1036691;28;20021;-21
2024/01/17 01:34:27;;;;;;;2.08;0.60;;;;;;;;;;1036730;28;20033;-21
2024/01/17 01:34:57;;;;;;;2.40;2.10;;;;;;;;;;1036838;28;20017;-21
2024/01/17 01:35:27;;;;;;;1.08;1.00;;;;;;;;;;1037155;28;20029;-21
2024/01/17 01:35:58;;;;;;;0.38;0.38;;;;;;;;;;1037648;28;20401;-21
2024/01/17 01:36:28;;;;;;;0.50;0.50;;;;;;;;;;1037050;28;20376;-21
2024/01/17 01:37:00;;;;;;;2.72;2.20;;;;;;;;;;1037379;28;20473;-21
2024/01/17 01:37:30;;;;;;;0.75;0.75;;;;;;;;;;1036169;28;20125;-21
2024/01/17 01:38:01;;;;;;;1.00;1.00;;;;;;;;;;1036729;28;20041;-21
2024/01/17 01:38:31;;;;;;;3.17;1.27;;;;;;;;;;1037549;28;20118;-21
2024/01/17 01:39:02;;;;;;;4.28;3.40;;;;;;;;;;1038738;28;20425;-21
2024/01/17 01:39:32;;;;;;;2.60;1.38;;;;;;;;;;1037756;28;20374;-21
2024/01/17 01:40:03;;;;;;;5.63;1.45;;;;;;;;;;1037598;28;20081;-21
2024/01/17 01:40:33;;;;;;;3.13;2.83;;;;;;;;;;1037408;28;20029;-21
2024/01/17 01:41:03;;;;;;;12.40;3.63;;;;;;;;;;1037775;28;20025;-21
2024/01/17 01:41:34;;;;;;;0.50;0.50;;;;;;;;;;1036982;28;20022;-21
2024/01/17 01:42:04;;;;;;;1.17;1.05;;;;;;;;;;1037761;28;20037;-21
2024/01/17 01:42:35;;;;;;;0.77;0.77;;;;;;;;;;1038097;28;20017;-21
2024/01/17 01:43:17;;;;;;;0.55;0.55;;;;;;;;;;1036175;28;20463;-21
2024/01/17 01:43:48;;;;;;;1.75;0.95;;;;;;;;;;1037081;28;20017;-21
2024/01/17 01:44:18;;;;;;;1.45;0.93;;;;;;;;;;1035990;28;20469;-21
2024/01/17 01:44:49;;;;;;;3.00;1.75;;;;;;;;;;1038489;28;20037;-21
2024/01/17 01:45:20;;;;;;;1.50;1.40;;;;;;;;;;1036819;28;20822;-21
2024/01/17 01:46:11;;;;;;;4.45;3.13;;;;;;;;;;1036790;28;20041;-21
2024/01/17 01:46:43;;;;;;;1.30;1.17;;;;;;;;;;1036220;28;20699;-21
2024/01/17 01:47:16;;;;;;;2.50;2.30;;;;;;;;;;1036990;28;20390;-21
2024/01/17 01:47:46;;;;;;;0.88;0.88;;;;;;;;;;1037044;28;20045;-21
2024/01/17 01:48:17;;;;;;;2.60;1.95;;;;;;;;;;1037232;28;20520;-21
2024/01/17 01:48:48;;;;;;;2.83;2.47;;;;;;;;;;1036610;28;20111;-21
2024/01/17 01:49:18;;;;;;;2.22;2.03;;;;;;;;;;1034662;28;20037;-21
2024/01/17 01:49:49;;;;;;;4.75;1.55;;;;;;;;;;1037289;28;20420;-21
2024/01/17 01:50:20;;;;;;;2.25;2.05;;;;;;;;;;1037011;28;20033;-21
2024/01/17 01:50:51;;;;;;;1.75;1.48;;;;;;;;;;1038098;28;20068;-21
2024/01/17 01:51:22;;;;;;;0.80;0.80;;;;;;;;;;1038064;28;20034;-21
2024/01/17 01:51:53;;;;;;;1.73;1.60;;;;;;;;;;1037283;28;20028;-21
2024/01/17 01:52:24;;;;;;;2.95;2.67;;;;;;;;;;1037931;28;20036;-21
2024/01/17 01:52:55;;;;;;;1.15;1.13;;;;;;;;;;1037135;28;20050;-21
2024/01/17 01:53:28;;;;;;;2.33;2.22;;;;;;;;;;1037313;28;20085;-21
2024/01/17 01:54:00;;;;;;;0.90;0.90;;;;;;;;;;1036795;28;20030;-21
2024/01/17 01:54:31;;;;;;;6.72;1.95;;;;;;;;;;1037218;28;20389;-21
2024/01/17 01:55:02;;;;;;;1.13;1.13;;;;;;;;;;1038061;28;20052;-21
2024/01/17 01:55:33;;;;;;;1.17;1.10;;;;;;;;;;1037525;28;20029;-21
2024/01/17 01:56:04;;;;;;;1.33;1.20;;;;;;;;;;1032839;28;20022;-22
2024/01/17 01:56:35;;;;;;;1.63;1.52;;;;;;;;;;1032542;28;20113;-21
2024/01/17 01:57:07;;;;;;;1.33;1.33;;;;;;;;;;1033196;28;20550;-22
2024/01/17 01:57:39;;;;;;;2.42;1.63;;;;;;;;;;1032849;28;20026;-21
2024/01/17 01:58:10;;;;;;;11.35;2.47;;;;;;;;;;1037278;28;20029;-21
2024/01/17 01:58:41;;;;;;;1.33;1.25;;;;;;;;;;1037039;28;20053;-22
2024/01/17 01:59:12;;;;;;;8.80;3.25;;;;;;;;;;1037339;28;20037;-21
2024/01/17 01:59:42;;;;;;;2.03;1.17;;;;;;;;;;1037489;28;21101;-21
2024/01/17 02:00:13;;;;;;;0.80;0.80;;;;;;;;;;1037023;28;20083;-21
2024/01/17 02:00:44;;;;;;;3.47;1.10;;;;;;;;;;1037262;28;20116;-21
2024/01/17 02:01:15;;;;;;;2.53;1.45;;;;;;;;;;1037374;28;20072;-21
2024/01/17 02:01:46;;;;;;;1.98;1.52;;;;;;;;;;1037249;28;20772;-21
2024/01/17 02:02:17;;;;;;;1.75;1.65;;;;;;;;;;1037932;28;20025;-21
2024/01/17 02:02:47;;;;;;;5.32;3.45;;;;;;;;;;1037200;28;20116;-21
2024/01/17 02:03:18;;;;;;;2.45;1.50;;;;;;;;;;1038347;28;20021;-21
2024/01/17 02:03:48;;;;;;;2.83;1.98;;;;;;;;;;1037993;28;20477;-21
2024/01/17 02:04:20;;;;;;;2.20;2.00;;;;;;;;;;1038130;28;20485;-21
2024/01/17 02:04:52;;;;;;;7.57;4.07;;;;;;;;;;1037456;28;20390;-21
2024/01/17 02:05:22;;;;;;;0.57;0.57;;;;;;;;;;1036707;28;20107;-21
2024/01/17 02:05:53;;;;;;;6.10;2.78;;;;;;;;;;1037931;28;20672;-21
2024/01/17 02:06:25;;;;;;;1.67;1.58;;;;;;;;;;1035693;28;20028;-21
2024/01/17 02:06:58;;;;;;;2.17;1.50;;;;;;;;;;1036926;28;20133;-21
2024/01/17 02:07:29;;;;;;;4.00;2.88;;;;;;;;;;1036947;28;20163;-22
2024/01/17 02:08:00;;;;;;;4.78;2.45;;;;;;;;;;1036452;28;20029;-22
2024/01/17 02:08:31;;;;;;;11.43;3.67;;;;;;;;;;1037800;28;20048;-21
2024/01/17 02:09:02;;;;;;;1.83;1.73;;;;;;;;;;1037900;28;20071;-22
2024/01/17 02:09:33;;;;;;;2.60;1.48;;;;;;;;;;1035809;28;21387;-21
2024/01/17 02:10:04;;;;;;;6.30;1.05;;;;;;;;;;1036848;28;20236;-21
2024/01/17 02:10:35;;;;;;;3.03;2.35;;;;;;;;;;1037032;28;20136;-21
2024/01/17 02:11:06;;;;;;;2.70;1.58;;;;;;;;;;1036864;28;20025;-22
2024/01/17 02:11:38;;;;;;;1.88;1.73;;;;;;;;;;1036356;28;20033;-21
2024/01/17 02:12:08;;;;;;;0.82;0.82;;;;;;;;;;1035090;28;20021;-21
2024/01/17 02:12:39;;;;;;;0.40;0.40;;;;;;;;;;1035942;28;20025;-21
2024/01/17 02:13:10;;;;;;;0.77;0.77;;;;;;;;;;1036937;28;20028;-21
2024/01/17 02:13:40;;;;;;;1.67;1.58;;;;;;;;;;1034807;28;20025;-22
2024/01/17 02:14:11;;;;;;;1.42;1.30;;;;;;;;;;1035018;28;20022;-21
2024/01/17 02:14:41;;;;;;;1.00;1.00;;;;;;;;;;1036948;28;20439;-21
2024/01/17 02:15:12;;;;;;;7.32;2.30;;;;;;;;;;1036886;28;20049;-21
2024/01/17 02:15:42;;;;;;;6.45;2.60;;;;;;;;;;1036806;28;20037;-21
2024/01/17 02:16:14;;;;;;;1.67;1.23;;;;;;;;;;1036296;28;20022;-22
2024/01/17 02:16:44;;;;;;;1.08;1.02;;;;;;;;;;1027815;28;20034;-21
2024/01/17 02:17:15;;;;;;;1.00;1.00;;;;;;;;;;1028981;28;20022;-21
2024/01/17 02:17:45;;;;;;;2.95;1.85;;;;;;;;;;1028972;28;20034;-21
2024/01/17 02:18:16;;;;;;;7.28;3.75;;;;;;;;;;1029551;28;20074;-22
2024/01/17 02:18:47;;;;;;;9.82;4.38;;;;;;;;;;1036686;28;20399;-21
2024/01/17 02:19:18;;;;;;;1.33;1.23;;;;;;;;;;1037237;28;20071;-21
2024/01/17 02:19:48;;;;;;;0.52;0.52;;;;;;;;;;1037074;28;20586;-21
2024/01/17 02:20:19;;;;;;;0.88;0.88;;;;;;;;;;1036587;28;20076;-21
2024/01/17 02:20:49;;;;;;;6.60;2.17;;;;;;;;;;1037694;28;20056;-21
2024/01/17 02:21:21;;;;;;;1.10;1.05;;;;;;;;;;1037149;28;20148;-21
2024/01/17 02:21:51;;;;;;;2.00;1.52;;;;;;;;;;1033402;28;20029;-22
2024/01/17 02:22:22;;;;;;;0.82;0.82;;;;;;;;;;1032436;28;20042;-21
2024/01/17 02:22:52;;;;;;;3.35;3.05;;;;;;;;;;1033043;28;20037;-21
2024/01/17 02:23:24;;;;;;;1.27;1.27;;;;;;;;;;1032699;28;20081;-21
2024/01/17 02:24:12;;;;;;;11.95;2.50;;;;;;;;;;1032613;28;20033;-21
2024/01/17 02:24:43;;;;;;;2.38;1.48;;;;;;;;;;1032825;28;20030;-22
2024/01/17 02:25:13;;;;;;;2.40;1.90;;;;;;;;;;1034290;28;20045;-22
2024/01/17 02:25:43;;;;;;;15.10;1.02;;;;;;;;;;1035132;28;20481;-22
2024/01/17 02:26:14;;;;;;;1.50;1.38;;;;;;;;;;1036257;28;20126;-21
2024/01/17 02:26:44;;;;;;;4.03;1.48;;;;;;;;;;1037456;28;20457;-21
2024/01/17 02:27:15;;;;;;;12.38;3.85;;;;;;;;;;1036502;28;20102;-21
2024/01/17 02:27:45;;;;;;;9.07;2.80;;;;;;;;;;1035937;28;20029;-21
2024/01/17 02:28:16;;;;;;;5.30;1.88;;;;;;;;;;1037014;28;20587;-21
2024/01/17 02:28:46;;;;;;;4.35;2.65;;;;;;;;;;1036125;28;20037;-22
2024/01/17 02:29:17;;;;;;;3.92;1.55;;;;;;;;;;1036502;28;20061;-22
2024/01/17 02:29:48;;;;;;;3.38;2.33;;;;;;;;;;1036036;28;20033;-21
2024/01/17 02:30:19;;;;;;;4.10;2.05;;;;;;;;;;1036415;28;20548;-22
2024/01/17 02:30:49;;;;;;;4.90;1.60;;;;;;;;;;1036440;28;20057;-22
2024/01/17 02:31:19;;;;;;;5.63;2.38;;;;;;;;;;1035577;28;20412;-21
2024/01/17 02:31:50;;;;;;;7.88;2.10;;;;;;;;;;1036597;28;20057;-21
2024/01/17 02:32:21;;;;;;;7.05;4.38;;;;;;;;;;1035829;28;20026;-21
2024/01/17 02:32:52;;;;;;;1.27;1.00;;;;;;;;;;1035576;28;20013;-22
2024/01/17 02:33:22;;;;;;;1.77;1.67;;;;;;;;;;1035823;28;20429;-22
2024/01/17 02:33:52;;;;;;;2.55;2.05;;;;;;;;;;1036485;28;20095;-21
2024/01/17 02:34:23;;;;;;;2.70;2.47;;;;;;;;;;1035770;28;20033;-21
2024/01/17 02:34:53;;;;;;;4.18;3.47;;;;;;;;;;1037773;28;20021;-21
2024/01/17 02:35:24;;;;;;;1.90;1.75;;;;;;;;;;1035705;28;20480;-22
2024/01/17 02:35:54;;;;;;;2.25;1.70;;;;;;;;;;1035847;28;20534;-21
2024/01/17 02:36:25;;;;;;;1.63;1.50;;;;;;;;;;1035613;28;20065;-21
2024/01/17 02:36:55;;;;;;;1.17;1.05;;;;;;;;;;1034063;28;20033;-21
2024/01/17 02:37:26;;;;;;;1.95;1.85;;;;;;;;;;1032145;28;20025;-22
2024/01/17 02:37:56;;;;;;;4.28;2.63;;;;;;;;;;1032453;28;20119;-21
2024/01/17 02:38:27;;;;;;;2.25;2.15;;;;;;;;;;1032031;28;20025;-21
2024/01/17 02:38:57;;;;;;;4.13;2.83;;;;;;;;;;1033557;28;21363;-21
2024/01/17 02:39:28;;;;;;;2.53;1.95;;;;;;;;;;1032096;28;20080;-21
2024/01/17 02:39:58;;;;;;;1.90;1.80;;;;;;;;;;1032458;28;20055;-21
2024/01/17 02:40:29;;;;;;;2.63;1.83;;;;;;;;;;1032356;28;20029;-21
2024/01/17 02:40:59;;;;;;;7.07;2.72;;;;;;;;;;1038262;28;20021;-21
2024/01/17 02:41:29;;;;;;;2.85;0.85;;;;;;;;;;1035918;28;20032;-21
2024/01/17 02:42:00;;;;;;;1.35;1.23;;;;;;;;;;1035841;28;20018;-21
2024/01/17 02:42:30;;;;;;;4.72;3.50;;;;;;;;;;1031298;28;20382;-21
2024/01/17 02:43:01;;;;;;;3.42;2.30;;;;;;;;;;1032459;28;20022;-21
2024/01/17 02:43:31;;;;;;;1.77;1.67;;;;;;;;;;1031769;28;20121;-21
2024/01/17 02:44:02;;;;;;;3.22;1.40;;;;;;;;;;1031899;28;20028;-21
2024/01/17 02:44:33;;;;;;;0.45;0.45;;;;;;;;;;1036728;28;20038;-21
2024/01/17 02:45:03;;;;;;;10.50;2.20;;;;;;;;;;1037950;28;20022;-21
2024/01/17 02:45:34;;;;;;;3.28;1.05;;;;;;;;;;1034742;28;20045;-21
2024/01/17 02:46:04;;;;;;;21.27;2.97;;;;;;;;;;1036604;28;20488;-21
2024/01/17 02:46:35;;;;;;;0.63;0.63;;;;;;;;;;1035886;28;20029;-21
2024/01/17 02:47:06;;;;;;;2.92;2.08;;;;;;;;;;1037373;28;20111;-21
2024/01/17 02:47:37;;;;;;;1.83;1.67;;;;;;;;;;1037142;28;20025;-21
2024/01/17 02:48:07;;;;;;;0.20;0.20;;;;;;;;;;1032515;28;20072;-21
2024/01/17 02:48:39;;;;;;;0.47;0.47;;;;;;;;;;1032452;28;20409;-21
2024/01/17 02:49:15;;;;;;;4.70;1.05;;;;;;;;;;1032935;28;20434;-21
2024/01/17 02:49:46;;;;;;;3.60;1.85;;;;;;;;;;1030667;28;20026;-21
2024/01/17 02:50:17;;;;;;;4.75;3.22;;;;;;;;;;1030912;28;20125;-21
2024/01/17 02:50:48;;;;;;;3.55;3.22;;;;;;;;;;1031925;28;20041;-22
2024/01/17 02:51:18;;;;;;;2.00;1.73;;;;;;;;;;1031757;28;20029;-22
2024/01/17 02:51:48;;;;;;;6.97;2.58;;;;;;;;;;1036973;28;20500;-21
2024/01/17 02:52:19;;;;;;;2.50;1.85;;;;;;;;;;1037504;28;20479;-21
2024/01/17 02:52:50;;;;;;;2.95;2.10;;;;;;;;;;1035743;28;20107;-22
2024/01/17 02:53:20;;;;;;;2.90;2.65;;;;;;;;;;1035325;28;20025;-21
2024/01/17 02:53:51;;;;;;;5.47;2.65;;;;;;;;;;1035343;28;20550;-21
2024/01/17 02:54:21;;;;;;;6.80;1.58;;;;;;;;;;1036809;28;20465;-21
2024/01/17 02:54:52;;;;;;;11.38;3.90;;;;;;;;;;1032213;28;20072;-21
2024/01/17 02:55:23;;;;;;;3.78;2.55;;;;;;;;;;1031797;28;20041;-21
2024/01/17 02:55:53;;;;;;;7.78;4.40;;;;;;;;;;1031308;28;20448;-21
2024/01/17 02:56:25;;;;;;;3.22;2.13;;;;;;;;;;1032038;28;20049;-21
2024/01/17 02:56:58;;;;;;;3.38;2.40;;;;;;;;;;1032477;28;20029;-21
2024/01/17 02:57:30;;;;;;;2.55;2.33;;;;;;;;;;1028605;28;20026;-21
2024/01/17 02:58:01;;;;;;;4.93;2.15;;;;;;;;;;1028791;28;20035;-21
2024/01/17 02:58:34;;;;;;;7.30;3.08;;;;;;;;;;1029585;28;20061;-21
2024/01/17 02:59:09;;;;;;;9.98;3.05;;;;;;;;;;1029993;28;20042;-21
2024/01/17 02:59:41;;;;;;;2.88;2.67;;;;;;;;;;1029187;28;20836;-21
2024/01/17 03:00:12;;;;;;;4.13;3.03;;;;;;;;;;1029852;28;20026;-21
2024/01/17 03:00:43;;;;;;;5.50;3.42;;;;;;;;;;1032728;28;20747;-21
2024/01/17 03:01:14;;;;;;;4.28;2.95;;;;;;;;;;1030835;28;20096;-21
2024/01/17 03:01:46;;;;;;;5.40;4.90;;;;;;;;;;1031700;28;20473;-21
2024/01/17 03:02:17;;;;;;;3.95;3.65;;;;;;;;;;1033592;28;20505;-21
2024/01/17 03:02:47;;;;;;;4.95;2.03;;;;;;;;;;1032122;28;20058;-21
2024/01/17 03:03:18;;;;;;;10.20;4.05;;;;;;;;;;1033458;28;20032;-21
2024/01/17 03:03:48;;;;;;;1.45;1.33;;;;;;;;;;1033499;28;20030;-21
2024/01/17 03:04:20;;;;;;;4.30;2.33;;;;;;;;;;1033195;28;20103;-21
2024/01/17 03:04:51;;;;;;;2.28;2.08;;;;;;;;;;1034529;28;20026;-21